Time,TemperatureF,DewpointF,PressureIn,WindDirection,WindDirectionDegrees,WindSpeedMPH,WindSpeedGustMPH,Humidity,HourlyPrecipIn,Conditions,Clouds,dailyrainin,SoftwareType,DateUTC
2013-05-10 00:05:00,60.9,58.0,30.05,North,10,0.0,0.0,91,0.00,,,0.00,weatherlink.com 1.10,2013-05-10 04:05:00,
2013-05-10 00:20:00,60.5,58.0,30.05,North,11,0.0,0.0,91,0.00,,,0.00,weatherlink.com 1.10,2013-05-10 04:20:00,
2013-05-10 00:35:00,60.2,58.0,30.05,North,10,0.0,0.0,92,0.00,,,0.00,weatherlink.com 1.10,2013-05-10 04:35:00,
2013-05-10 00:52:00,59.9,58.0,30.06,North,10,0.0,0.0,92,0.00,,,0.00,weatherlink.com 1.10,2013-05-10 04:52:00,
2013-05-10 01:05:00,59.6,58.0,30.05,North,10,0.0,0.0,93,0.00,,,0.00,weatherlink.com 1.10,2013-05-10 05:05:00,
2013-05-10 01:20:00,59.4,58.0,30.05,North,10,0.0,0.0,94,0.00,,,0.00,weatherlink.com 1.10,2013-05-10 05:20:00,
2013-05-10 01:36:00,59.1,57.0,30.04,North,10,0.0,0.0,94,0.00,,,0.00,weatherlink.com 1.10,2013-05-10 05:36:00,
2013-05-10 01:51:00,58.8,57.0,30.04,North,10,0.0,0.0,94,0.00,,,0.00,weatherlink.com 1.10,2013-05-10 05:51:00,
2013-05-10 02:06:00,58.6,57.0,30.03,North,10,0.0,0.0,95,0.00,,,0.00,weatherlink.com 1.10,2013-05-10 06:06:00,
2013-05-10 02:21:00,58.4,57.0,30.02,North,10,0.0,0.0,95,0.00,,,0.00,weatherlink.com 1.10,2013-05-10 06:21:00,
2013-05-10 02:36:00,58.0,57.0,30.02,North,10,0.0,0.0,95,0.00,,,0.00,weatherlink.com 1.10,2013-05-10 06:36:00,
2013-05-10 02:51:00,57.8,56.0,30.01,North,10,0.0,0.0,95,0.00,,,0.00,weatherlink.com 1.10,2013-05-10 06:51:00,
2013-05-10 03:06:00,57.6,56.0,30.01,North,10,0.0,0.0,95,0.00,,,0.00,weatherlink.com 1.10,2013-05-10 07:06:00,
2013-05-10 03:21:00,57.4,56.0,30.00,North,11,0.0,0.0,96,0.00,,,0.00,weatherlink.com 1.10,2013-05-10 07:21:00,
2013-05-10 03:36:00,57.3,56.0,30.01,North,10,0.0,0.0,96,0.00,,,0.00,weatherlink.com 1.10,2013-05-10 07:36:00,
2013-05-10 03:51:00,57.2,56.0,30.01,North,10,0.0,0.0,96,0.00,,,0.00,weatherlink.com 1.10,2013-05-10 07:51:00,
2013-05-10 04:06:00,56.9,56.0,30.00,North,10,0.0,0.0,96,0.00,,,0.00,weatherlink.com 1.10,2013-05-10 08:06:00,
2013-05-10 04:21:00,56.7,56.0,30.00,North,10,0.0,0.0,96,0.00,,,0.00,weatherlink.com 1.10,2013-05-10 08:21:00,
2013-05-10 04:36:00,56.5,55.0,29.99,North,10,0.0,0.0,96,0.00,,,0.00,weatherlink.com 1.10,2013-05-10 08:36:00,
2013-05-10 04:51:00,56.4,55.0,29.99,North,10,0.0,0.0,96,0.00,,,0.00,weatherlink.com 1.10,2013-05-10 08:51:00,
2013-05-10 05:06:00,56.4,56.0,29.99,North,10,0.0,0.0,97,0.00,,,0.00,weatherlink.com 1.10,2013-05-10 09:06:00,
2013-05-10 05:21:00,56.1,55.0,29.99,North,10,0.0,0.0,97,0.00,,,0.00,weatherlink.com 1.10,2013-05-10 09:21:00,
2013-05-10 05:36:00,55.9,55.0,29.98,North,10,0.0,0.0,97,0.00,,,0.00,weatherlink.com 1.10,2013-05-10 09:36:00,
2013-05-10 05:51:00,55.8,55.0,29.98,North,10,0.0,0.0,97,0.00,,,0.00,weatherlink.com 1.10,2013-05-10 09:51:00,
2013-05-10 06:06:00,55.7,55.0,29.98,North,10,0.0,0.0,97,0.00,,,0.00,weatherlink.com 1.10,2013-05-10 10:06:00,
2013-05-10 06:21:00,55.5,55.0,29.99,North,10,0.0,0.0,97,0.00,,,0.00,weatherlink.com 1.10,2013-05-10 10:21:00,
2013-05-10 06:36:00,55.4,55.0,29.99,North,10,0.0,0.0,97,0.00,,,0.00,weatherlink.com 1.10,2013-05-10 10:36:00,
2013-05-10 06:51:00,55.4,55.0,30.00,North,10,0.0,0.0,97,0.00,,,0.00,weatherlink.com 1.10,2013-05-10 10:51:00,
2013-05-10 07:06:00,55.6,55.0,30.00,North,10,0.0,0.0,97,0.00,,,0.00,weatherlink.com 1.10,2013-05-10 11:06:00,
2013-05-10 07:21:00,56.0,55.0,30.01,North,10,0.0,0.0,97,0.00,,,0.00,weatherlink.com 1.10,2013-05-10 11:21:00,
2013-05-10 07:36:00,56.6,56.0,30.01,North,10,0.0,0.0,98,0.00,,,0.00,weatherlink.com 1.10,2013-05-10 11:36:00,
2013-05-10 07:51:00,57.2,57.0,30.01,North,11,0.0,0.0,98,0.00,,,0.00,weatherlink.com 1.10,2013-05-10 11:51:00,
2013-05-10 08:06:00,57.6,57.0,30.01,NNE,14,0.0,0.0,98,0.00,,,0.00,weatherlink.com 1.10,2013-05-10 12:06:00,
2013-05-10 08:21:00,58.1,58.0,30.02,NNE,14,0.0,0.0,98,0.00,,,0.00,weatherlink.com 1.10,2013-05-10 12:21:00,
2013-05-10 08:36:00,58.8,58.0,30.02,NNE,14,0.0,0.0,98,0.00,,,0.00,weatherlink.com 1.10,2013-05-10 12:36:00,
2013-05-10 08:51:00,59.7,59.0,30.02,NNE,14,0.0,0.0,98,0.00,,,0.00,weatherlink.com 1.10,2013-05-10 12:51:00,
2013-05-10 09:06:00,60.7,60.0,30.03,NNE,14,0.0,0.0,97,0.00,,,0.00,weatherlink.com 1.10,2013-05-10 13:06:00,
2013-05-10 09:21:00,62.6,60.0,30.03,ESE,110,0.0,1.0,92,0.00,,,0.00,weatherlink.com 1.10,2013-05-10 13:21:00,
2013-05-10 09:36:00,63.9,61.0,30.03,East,96,1.0,1.0,89,0.00,,,0.00,weatherlink.com 1.10,2013-05-10 13:36:00,
2013-05-10 09:51:00,65.3,61.0,30.03,SE,124,1.0,1.0,86,0.00,,,0.00,weatherlink.com 1.10,2013-05-10 13:51:00,
2013-05-10 10:06:00,67.3,62.0,30.02,SW,228,0.0,1.0,83,0.00,,,0.00,weatherlink.com 1.10,2013-05-10 14:06:00,
2013-05-10 10:21:00,68.6,61.0,30.03,ESE,105,0.0,6.0,76,0.00,,,0.00,weatherlink.com 1.10,2013-05-10 14:21:00,
2013-05-10 10:37:00,70.1,61.0,30.04,SE,126,0.0,4.0,73,0.00,,,0.00,weatherlink.com 1.10,2013-05-10 14:37:00,
2013-05-10 10:53:00,69.9,60.0,30.04,WSW,255,0.0,2.0,72,0.00,,,0.00,weatherlink.com 1.10,2013-05-10 14:53:00,
2013-05-10 11:07:00,70.1,60.0,30.04,West,276,0.0,3.0,70,0.00,,,0.00,weatherlink.com 1.10,2013-05-10 15:07:00,
2013-05-10 11:22:00,70.9,60.0,30.04,SE,126,0.0,2.0,69,0.00,,,0.00,weatherlink.com 1.10,2013-05-10 15:22:00,
2013-05-10 11:37:00,71.3,61.0,30.03,SSE,155,1.0,2.0,69,0.00,,,0.00,weatherlink.com 1.10,2013-05-10 15:37:00,
2013-05-10 11:52:00,71.4,60.0,30.04,SSE,148,1.0,3.0,68,0.00,,,0.00,weatherlink.com 1.10,2013-05-10 15:52:00,
2013-05-10 12:07:00,70.7,60.0,30.04,NNW,333,0.0,3.0,68,0.00,,,0.00,weatherlink.com 1.10,2013-05-10 16:07:00,
2013-05-10 12:22:00,70.8,59.0,30.04,ESE,121,0.0,3.0,67,0.00,,,0.00,weatherlink.com 1.10,2013-05-10 16:22:00,
2013-05-10 12:37:00,70.3,59.0,30.03,ESE,116,0.0,1.0,67,0.00,,,0.00,weatherlink.com 1.10,2013-05-10 16:37:00,
2013-05-10 12:52:00,71.5,61.0,30.02,West,278,0.0,3.0,70,0.00,,,0.00,weatherlink.com 1.10,2013-05-10 16:52:00,
2013-05-10 13:07:00,72.7,58.0,30.02,West,264,0.0,7.0,61,0.00,,,0.00,weatherlink.com 1.10,2013-05-10 17:07:00,
2013-05-10 13:22:00,72.9,59.0,30.01,SSE,161,1.0,5.0,62,0.00,,,0.00,weatherlink.com 1.10,2013-05-10 17:22:00,
2013-05-10 13:37:00,73.6,59.0,30.01,West,265,0.0,5.0,61,0.00,,,0.00,weatherlink.com 1.10,2013-05-10 17:37:00,
2013-05-10 13:52:00,73.8,59.0,30.01,ESE,115,1.0,2.0,61,0.00,,,0.00,weatherlink.com 1.10,2013-05-10 17:52:00,
2013-05-10 14:07:00,73.7,58.0,30.00,SW,236,0.0,4.0,58,0.00,,,0.00,weatherlink.com 1.10,2013-05-10 18:07:00,
2013-05-10 14:22:00,73.5,59.0,30.00,East,91,0.0,3.0,61,0.00,,,0.00,weatherlink.com 1.10,2013-05-10 18:22:00,
2013-05-10 14:37:00,73.9,60.0,29.99,West,260,0.0,2.0,62,0.00,,,0.00,weatherlink.com 1.10,2013-05-10 18:37:00,
2013-05-10 14:52:00,73.2,59.0,29.99,ESE,120,2.0,5.0,62,0.00,,,0.00,weatherlink.com 1.10,2013-05-10 18:52:00,
2013-05-10 15:07:00,73.1,58.0,29.98,South,177,0.0,4.0,59,0.00,,,0.00,weatherlink.com 1.10,2013-05-10 19:07:00,
2013-05-10 15:22:00,73.1,59.0,29.97,South,179,0.0,0.0,62,0.00,,,0.00,weatherlink.com 1.10,2013-05-10 19:22:00,
2013-05-10 15:39:00,73.4,59.0,29.96,WSW,255,0.0,7.0,60,0.00,,,0.00,weatherlink.com 1.10,2013-05-10 19:39:00,
2013-05-10 15:52:00,73.1,58.0,29.96,West,259,0.0,2.0,59,0.00,,,0.00,weatherlink.com 1.10,2013-05-10 19:52:00,
2013-05-10 16:07:00,73.5,60.0,29.95,West,261,0.0,3.0,62,0.00,,,0.00,weatherlink.com 1.10,2013-05-10 20:07:00,
2013-05-10 16:22:00,73.2,60.0,29.95,SSW,192,0.0,2.0,64,0.00,,,0.00,weatherlink.com 1.10,2013-05-10 20:22:00,
2013-05-10 16:37:00,72.6,61.0,29.95,West,259,0.0,3.0,66,0.00,,,0.00,weatherlink.com 1.10,2013-05-10 20:37:00,
2013-05-10 16:52:00,72.0,60.0,29.95,NW,311,0.0,2.0,66,0.00,,,0.00,weatherlink.com 1.10,2013-05-10 20:52:00,
2013-05-10 17:07:00,71.7,59.0,29.95,West,271,3.0,3.0,65,0.00,,,0.00,weatherlink.com 1.10,2013-05-10 21:07:00,
2013-05-10 17:22:00,71.2,59.0,29.93,WNW,300,0.0,3.0,65,0.00,,,0.00,weatherlink.com 1.10,2013-05-10 21:22:00,
2013-05-10 17:37:00,71.7,60.0,29.93,West,276,0.0,1.0,66,0.00,,,0.00,weatherlink.com 1.10,2013-05-10 21:37:00,
2013-05-10 17:52:00,71.8,59.0,29.93,SE,135,0.0,3.0,64,0.00,,,0.00,weatherlink.com 1.10,2013-05-10 21:52:00,
2013-05-10 18:07:00,71.9,59.0,29.93,West,267,0.0,4.0,65,0.00,,,0.00,weatherlink.com 1.10,2013-05-10 22:07:00,
2013-05-10 18:22:00,71.7,59.0,29.94,NW,317,1.0,3.0,64,0.00,,,0.00,weatherlink.com 1.10,2013-05-10 22:22:00,
2013-05-10 18:37:00,71.3,59.0,29.93,ESE,122,0.0,1.0,66,0.00,,,0.00,weatherlink.com 1.10,2013-05-10 22:37:00,
2013-05-10 18:52:00,70.9,59.0,29.93,WSW,253,0.0,1.0,67,0.00,,,0.00,weatherlink.com 1.10,2013-05-10 22:52:00,
2013-05-10 19:07:00,70.5,59.0,29.92,WSW,240,0.0,1.0,68,0.00,,,0.00,weatherlink.com 1.10,2013-05-10 23:07:00,
2013-05-10 19:23:00,70.6,60.0,29.92,West,271,0.0,2.0,68,0.00,,,0.00,weatherlink.com 1.10,2013-05-10 23:23:00,
2013-05-10 19:37:00,70.4,59.0,29.92,SSE,162,0.0,3.0,68,0.00,,,0.00,weatherlink.com 1.10,2013-05-10 23:37:00,
2013-05-10 19:52:00,70.1,59.0,29.93,West,276,0.0,2.0,68,0.00,,,0.00,weatherlink.com 1.10,2013-05-10 23:52:00,
2013-05-10 20:07:00,69.7,60.0,29.93,West,278,0.0,1.0,70,0.00,,,0.00,weatherlink.com 1.10,2013-05-11 00:07:00,
2013-05-10 20:22:00,69.0,59.0,29.94,WNW,287,0.0,1.0,71,0.00,,,0.00,weatherlink.com 1.10,2013-05-11 00:22:00,
2013-05-10 20:37:00,68.3,59.0,29.94,North,352,0.0,1.0,73,0.00,,,0.00,weatherlink.com 1.10,2013-05-11 00:37:00,
2013-05-10 20:52:00,68.0,59.0,29.94,WNW,284,0.0,1.0,73,0.00,,,0.00,weatherlink.com 1.10,2013-05-11 00:52:00,
2013-05-10 21:07:00,67.7,59.0,29.95,NW,319,0.0,0.0,74,0.00,,,0.00,weatherlink.com 1.10,2013-05-11 01:07:00,
2013-05-10 21:23:00,67.3,60.0,29.95,North,355,1.0,1.0,76,0.00,,,0.00,weatherlink.com 1.10,2013-05-11 01:23:00,
2013-05-10 21:37:00,67.1,60.0,29.95,NE,51,0.0,1.0,77,0.00,,,0.00,weatherlink.com 1.10,2013-05-11 01:37:00,
2013-05-10 21:52:00,66.8,59.0,29.95,ENE,76,0.0,0.0,77,0.00,,,0.00,weatherlink.com 1.10,2013-05-11 01:52:00,
2013-05-10 22:07:00,66.4,60.0,29.95,ENE,75,0.0,1.0,80,0.00,,,0.00,weatherlink.com 1.10,2013-05-11 02:07:00,
2013-05-10 22:22:00,66.2,60.0,29.96,WNW,287,0.0,0.0,81,0.00,,,0.00,weatherlink.com 1.10,2013-05-11 02:22:00,
2013-05-10 22:37:00,65.7,60.0,29.95,North,6,0.0,1.0,82,0.00,,,0.00,weatherlink.com 1.10,2013-05-11 02:37:00,
2013-05-10 22:52:00,65.4,60.0,29.95,North,5,0.0,0.0,82,0.00,,,0.00,weatherlink.com 1.10,2013-05-11 02:52:00,
2013-05-10 23:08:00,65.0,60.0,29.95,NNE,15,0.0,1.0,84,0.00,,,0.00,weatherlink.com 1.10,2013-05-11 03:08:00,
2013-05-10 23:23:00,65.2,60.0,29.96,WSW,241,0.0,1.0,82,0.00,,,0.00,weatherlink.com 1.10,2013-05-11 03:23:00,
2013-05-10 23:38:00,65.1,60.0,29.96,WNW,302,0.0,0.0,82,0.00,,,0.00,weatherlink.com 1.10,2013-05-11 03:38:00,
2013-05-10 23:53:00,64.9,59.0,29.96,WNW,302,0.0,0.0,82,0.00,,,0.00,weatherlink.com 1.10,2013-05-11 03:53:00,